Time;durP1;ratioP1;P1;durP2;ratioP2;P2;SDS_P1;SDS_P2;PMS_P1;PMS_P2;Temp;Humidity;BMP_temperature;BMP_pressure;BME280_temperature;BME280_humidity;BME280_pressure;Samples;Min_cycle;Max_cycle;Signal;HPM_P1;HPM_P2
2023/07/20 00:00:34;;;;;;;3.20;2.30;;;;;;;16.41;59.22;99069.17;218132;1254;139471;-67
2023/07/20 00:05:59;;;;;;;2.80;2.00;;;;;;;16.34;60.01;99076.32;218291;1254;139183;-68
2023/07/20 00:11:03;;;;;;;2.90;2.70;;;;;;;16.25;60.17;99076.73;218289;1254;139651;-66
2023/07/20 00:16:08;;;;;;;3.40;3.00;;;;;;;16.19;60.52;99080.11;218016;1256;140739;-65
2023/07/20 00:21:12;;;;;;;3.10;2.50;;;;;;;16.21;60.93;99080.67;218925;1254;139764;-66
2023/07/20 00:26:16;;;;;;;5.20;2.60;;;;;;;16.13;61.07;99080.34;218367;1254;615796;-66
2023/07/20 00:31:20;;;;;;;4.80;2.60;;;;;;;16.02;61.37;99082.08;218353;1257;139684;-65
2023/07/20 00:36:24;;;;;;;11.30;2.50;;;;;;;15.95;61.87;99081.88;220123;1253;140917;-66
2023/07/20 00:41:29;;;;;;;3.20;2.90;;;;;;;16.01;62.24;99085.20;219890;1254;141285;-66
2023/07/20 00:46:34;;;;;;;3.60;2.80;;;;;;;16.09;62.46;99084.31;219731;1254;139267;-65
2023/07/20 00:51:38;;;;;;;3.80;3.50;;;;;;;16.11;62.67;99085.69;219925;1254;141841;-66
2023/07/20 00:56:44;;;;;;;3.80;2.30;;;;;;;16.14;62.70;99085.44;220281;1254;140016;-68
2023/07/20 01:01:48;;;;;;;2.40;2.20;;;;;;;16.11;62.57;99089.89;220975;1253;140784;-67
2023/07/20 01:07:11;;;;;;;3.60;2.50;;;;;;;16.05;62.75;99090.53;221008;1253;140275;-68
2023/07/20 01:12:27;;;;;;;3.50;2.10;;;;;;;16.06;62.92;99088.43;221111;1254;139949;-69
2023/07/20 01:17:33;;;;;;;7.00;2.60;;;;;;;16.09;63.49;99092.76;220255;1254;140141;-69
2023/07/20 01:23:07;;;;;;;3.20;2.70;;;;;;;16.14;63.63;99090.45;220795;1254;139885;-67
2023/07/20 01:28:41;;;;;;;4.10;3.00;;;;;;;16.15;63.95;99100.96;218344;1254;141994;-65
2023/07/20 01:33:48;;;;;;;4.10;3.30;;;;;;;16.16;64.31;99107.47;219660;1254;139477;-65
2023/07/20 01:38:54;;;;;;;3.30;2.90;;;;;;;16.18;64.44;99121.70;219899;1254;139632;-66
2023/07/20 01:43:59;;;;;;;5.20;3.00;;;;;;;16.14;64.57;99127.28;219535;1253;140000;-65
2023/07/20 01:49:04;;;;;;;10.50;3.60;;;;;;;16.11;64.49;99132.10;218600;1254;140195;-65
2023/07/20 01:54:08;;;;;;;2.30;2.10;;;;;;;16.12;64.59;99127.57;218175;1254;140148;-65
2023/07/20 01:59:12;;;;;;;3.50;3.20;;;;;;;16.11;64.76;99130.48;219133;1255;140558;-65
2023/07/20 02:04:17;;;;;;;3.20;3.00;;;;;;;16.04;64.93;99136.79;218341;1254;139543;-66
2023/07/20 02:09:22;;;;;;;8.10;3.10;;;;;;;16.04;65.33;99146.58;218317;1254;142437;-66
2023/07/20 02:14:26;;;;;;;9.60;3.90;;;;;;;16.01;65.48;99150.20;218349;1254;141048;-66
2023/07/20 02:19:31;;;;;;;4.30;3.60;;;;;;;15.90;65.46;99146.29;218246;1256;140849;-67
2023/07/20 02:24:36;;;;;;;3.10;2.80;;;;;;;15.88;65.78;99151.10;218738;1255;140354;-66
2023/07/20 02:29:41;;;;;;;5.60;3.20;;;;;;;15.90;66.06;99153.55;218508;1253;140155;-66
2023/07/20 02:34:45;;;;;;;4.00;2.90;;;;;;;15.83;66.61;99159.09;218158;1256;139783;-67
2023/07/20 02:39:50;;;;;;;6.00;3.60;;;;;;;15.70;66.85;99156.52;218963;1254;140822;-67
2023/07/20 02:44:54;;;;;;;3.20;2.60;;;;;;;15.60;67.35;99161.75;220798;1254;140601;-67
2023/07/20 02:49:58;;;;;;;6.00;4.60;;;;;;;15.59;67.94;99180.04;220339;1256;140383;-66
2023/07/20 02:55:03;;;;;;;5.00;3.40;;;;;;;15.64;68.33;99184.55;220944;1254;140939;-67
2023/07/20 03:00:09;;;;;;;5.80;4.60;;;;;;;15.64;68.55;99192.30;218949;1256;140555;-67
2023/07/20 03:05:14;;;;;;;3.30;3.00;;;;;;;15.63;68.88;99197.14;221084;1253;140103;-68
2023/07/20 03:10:17;;;;;;;4.80;4.00;;;;;;;15.59;69.16;99204.16;220299;1254;139883;-68
2023/07/20 03:15:21;;;;;;;3.50;3.20;;;;;;;15.60;69.53;99198.25;219567;1253;140185;-68
2023/07/20 03:20:26;;;;;;;5.40;3.70;;;;;;;15.60;69.58;99199.43;219969;1254;139686;-67
2023/07/20 03:25:30;;;;;;;4.90;3.90;;;;;;;15.59;69.81;99212.92;219989;1254;139843;-67
2023/07/20 03:30:35;;;;;;;4.30;3.80;;;;;;;15.54;70.05;99205.96;220197;1253;140009;-68
2023/07/20 03:35:39;;;;;;;6.30;3.50;;;;;;;15.46;70.47;99194.45;218939;1254;140650;-68
2023/07/20 03:40:51;;;;;;;3.70;3.20;;;;;;;15.43;70.86;99193.18;219898;1254;139606;-68
2023/07/20 03:45:56;;;;;;;6.20;3.50;;;;;;;15.42;71.38;99184.05;220543;1253;140110;-67
2023/07/20 03:51:01;;;;;;;3.80;3.10;;;;;;;15.39;71.60;99182.89;218916;1253;139661;-68
2023/07/20 03:56:08;;;;;;;4.70;4.20;;;;;;;15.41;71.89;99188.95;217992;1255;139741;-67
2023/07/20 04:01:13;;;;;;;4.00;3.30;;;;;;;15.42;72.28;99182.98;218441;1255;139596;-67
2023/07/20 04:06:17;;;;;;;8.40;3.50;;;;;;;15.37;72.44;99182.74;218469;1254;139718;-67
2023/07/20 04:11:22;;;;;;;9.60;5.00;;;;;;;15.35;72.67;99181.52;218586;1256;139532;-67
2023/07/20 04:16:27;;;;;;;6.30;4.20;;;;;;;15.30;73.16;99184.29;218596;1258;140571;-68
2023/07/20 04:21:32;;;;;;;5.70;5.10;;;;;;;15.36;73.58;99192.27;219715;1254;140466;-67
2023/07/20 04:26:37;;;;;;;7.80;4.20;;;;;;;15.43;73.71;99190.39;218143;1258;141897;-66
2023/07/20 04:31:41;;;;;;;9.10;3.70;;;;;;;15.38;73.48;99181.77;218875;1254;139949;-66
2023/07/20 04:36:45;;;;;;;5.10;4.40;;;;;;;15.41;74.01;99183.36;218214;1254;140294;-65
2023/07/20 04:41:51;;;;;;;7.30;5.10;;;;;;;15.44;74.28;99184.04;219909;1256;140515;-68
2023/07/20 04:46:55;;;;;;;5.80;5.00;;;;;;;15.49;74.33;99180.67;220414;1254;140608;-70
2023/07/20 04:52:00;;;;;;;4.70;4.30;;;;;;;15.62;74.41;99184.25;219159;1257;139972;-70
2023/07/20 04:57:11;;;;;;;5.50;4.80;;;;;;;15.78;74.53;99188.75;220662;1255;140151;-68
2023/07/20 05:02:16;;;;;;;5.10;4.40;;;;;;;16.01;74.27;99190.20;220830;1254;140114;-68
2023/07/20 05:07:20;;;;;;;5.00;4.60;;;;;;;16.29;74.20;99193.04;220972;1257;139934;-69
2023/07/20 05:12:24;;;;;;;7.40;4.40;;;;;;;16.74;74.13;99199.06;220551;1253;139534;-69
2023/07/20 05:17:29;;;;;;;8.80;5.30;;;;;;;17.34;73.78;99201.54;220418;1256;140728;-69
2023/07/20 05:22:34;;;;;;;4.80;4.40;;;;;;;17.78;73.09;99207.73;219780;1256;140301;-69
2023/07/20 05:27:39;;;;;;;4.40;4.10;;;;;;;17.89;72.05;99203.02;220140;1254;139528;-68
2023/07/20 05:32:51;;;;;;;4.50;4.20;;;;;;;17.76;71.61;99204.27;218740;1255;139872;-69
2023/07/20 05:37:56;;;;;;;5.50;4.50;;;;;;;17.53;71.18;99205.52;218929;1254;139909;-69
2023/07/20 05:43:02;;;;;;;4.30;4.00;;;;;;;17.32;71.39;99199.11;219649;1254;140813;-68
2023/07/20 05:48:09;;;;;;;4.50;4.20;;;;;;;17.22;71.63;99178.33;217905;1255;140389;-67
2023/07/20 05:53:15;;;;;;;4.90;4.20;;;;;;;17.10;72.05;99160.30;218867;1257;139691;-68
2023/07/20 05:58:20;;;;;;;4.90;4.40;;;;;;;17.16;72.15;99167.86;218334;1254;140188;-69
2023/07/20 06:03:25;;;;;;;5.20;4.70;;;;;;;17.26;72.52;99170.58;218873;1254;140689;-69
2023/07/20 06:08:33;;;;;;;5.20;4.70;;;;;;;17.28;72.32;99165.61;218856;1257;140362;-69
2023/07/20 06:13:38;;;;;;;4.30;3.50;;;;;;;17.24;72.22;99167.38;218042;1257;140159;-68
2023/07/20 06:18:45;;;;;;;4.50;3.50;;;;;;;17.22;72.17;99166.77;218311;1254;139753;-66
2023/07/20 06:23:50;;;;;;;6.70;4.30;;;;;;;17.24;72.12;99162.64;217799;1254;140568;-66
2023/07/20 06:28:54;;;;;;;6.10;4.20;;;;;;;17.28;72.17;99179.77;218092;1254;139622;-68
2023/07/20 06:33:59;;;;;;;16.20;4.90;;;;;;;17.34;72.40;99194.23;218869;1254;139618;-67
2023/07/20 06:39:04;;;;;;;12.80;4.80;;;;;;;17.41;72.50;99206.04;218855;1256;139730;-67
2023/07/20 06:44:11;;;;;;;7.20;5.00;;;;;;;17.47;72.48;99216.92;219874;1254;140441;-68
2023/07/20 06:49:26;;;;;;;5.10;4.50;;;;;;;17.47;72.36;99213.03;220867;1254;140126;-69
2023/07/20 06:54:32;;;;;;;13.70;4.60;;;;;;;17.48;72.26;99226.81;220538;1254;140061;-65
2023/07/20 06:59:40;;;;;;;6.50;4.00;;;;;;;17.52;72.18;99226.94;220825;1254;140539;-65
2023/07/20 07:04:46;;;;;;;5.60;5.10;;;;;;;17.59;71.97;99222.52;220820;1254;140412;-64
2023/07/20 07:09:51;;;;;;;5.10;4.70;;;;;;;17.74;71.94;99222.56;220948;1254;141359;-66
2023/07/20 07:14:56;;;;;;;4.30;3.90;;;;;;;17.89;71.73;99233.39;220329;1254;140150;-65
2023/07/20 07:20:01;;;;;;;4.30;3.90;;;;;;;18.08;71.47;99241.65;218158;1257;141719;-71
2023/07/20 07:25:07;;;;;;;3.40;3.10;;;;;;;18.38;71.21;99249.98;218646;1257;140579;-65
2023/07/20 07:30:13;;;;;;;9.90;4.70;;;;;;;20.00;71.70;99248.39;218683;1255;140338;-69
2023/07/20 07:35:18;;;;;;;4.00;3.60;;;;;;;21.18;69.11;99250.55;218342;1254;141123;-67
2023/07/20 07:40:24;;;;;;;4.00;3.20;;;;;;;22.43;67.66;99256.34;218704;1254;140034;-67
2023/07/20 07:45:29;;;;;;;4.00;3.40;;;;;;;23.55;65.35;99252.02;218211;1254;139970;-68
2023/07/20 07:50:34;;;;;;;4.90;3.90;;;;;;;24.32;62.88;99253.42;218624;1254;140920;-66
2023/07/20 07:55:41;;;;;;;3.50;3.30;;;;;;;24.11;60.38;99260.58;218885;1254;139289;-68
2023/07/20 08:00:47;;;;;;;4.00;3.70;;;;;;;23.80;59.85;99265.31;218136;1254;139355;-64
2023/07/20 08:05:55;;;;;;;;;;;;;;;23.38;59.22;99272.34;218017;1257;138920;-65
2023/07/20 08:11:00;;;;;;;3.70;3.40;;;;;;;23.01;59.06;99275.50;218652;1254;125451;-64
2023/07/20 08:16:10;;;;;;;4.00;3.50;;;;;;;23.24;59.18;99273.68;219383;1254;162154;-68
2023/07/20 08:21:15;;;;;;;3.60;2.60;;;;;;;23.48;58.69;99274.46;218114;1257;139983;-67
2023/07/20 08:26:22;;;;;;;3.40;3.00;;;;;;;23.65;57.82;99269.89;218794;1254;139944;-67
2023/07/20 08:31:28;;;;;;;7.40;3.00;;;;;;;23.82;56.95;99266.02;220122;1254;138957;-69
2023/07/20 08:36:32;;;;;;;5.40;3.50;;;;;;;23.57;56.00;99273.82;219321;1254;139057;-71
2023/07/20 08:41:37;;;;;;;4.30;2.60;;;;;;;23.59;55.81;99268.90;218953;1254;139466;-65
2023/07/20 08:46:42;;;;;;;3.00;2.50;;;;;;;23.57;55.28;99269.27;218641;1254;139769;-65
2023/07/20 08:51:48;;;;;;;2.40;2.20;;;;;;;23.19;54.63;99266.73;220906;1254;139620;-68
2023/07/20 08:56:53;;;;;;;4.40;2.50;;;;;;;22.94;55.03;99265.27;220841;1254;139032;-69
2023/07/20 09:01:59;;;;;;;4.70;2.70;;;;;;;23.24;55.37;99259.77;220320;1254;139177;-72
2023/07/20 09:07:04;;;;;;;7.10;2.80;;;;;;;23.54;54.96;99263.65;220754;1254;139434;-67
2023/07/20 09:12:16;;;;;;;3.20;2.50;;;;;;;24.32;54.55;99255.44;220067;1254;139602;-67
2023/07/20 09:17:26;;;;;;;3.40;2.40;;;;;;;24.47;53.74;99256.58;219213;1257;139737;-67
2023/07/20 09:22:33;;;;;;;3.00;2.70;;;;;;;24.55;52.79;99255.89;218173;1254;139827;-66
2023/07/20 09:27:48;;;;;;;2.50;2.30;;;;;;;24.45;52.30;99260.07;218414;1254;141684;-67
2023/07/20 09:32:55;;;;;;;2.60;2.40;;;;;;;24.10;51.91;99262.95;219355;1257;139276;-66
2023/07/20 09:38:02;;;;;;;2.40;2.00;;;;;;;23.60;51.90;99263.65;218663;1254;139612;-66
2023/07/20 09:43:11;;;;;;;2.80;2.60;;;;;;;23.50;52.58;99254.17;218213;1254;139400;-66
2023/07/20 09:48:25;;;;;;;1.80;1.70;;;;;;;24.22;53.33;99236.40;218432;1254;139080;-67
2023/07/20 09:53:34;;;;;;;2.30;1.90;;;;;;;25.05;53.17;99240.06;218298;1254;138953;-66
2023/07/20 09:58:40;;;;;;;2.50;2.00;;;;;;;25.04;51.34;99235.27;219345;1253;139680;-69
2023/07/20 10:03:45;;;;;;;;;;;;;;;24.59;50.54;99243.04;218256;1254;139438;-65
2023/07/20 10:08:53;;;;;;;2.00;1.40;;;;;;;24.64;50.64;99234.78;220262;1254;125849;-68
2023/07/20 10:14:05;;;;;;;3.20;2.30;;;;;;;24.79;50.04;99232.63;219064;1253;140380;-66
2023/07/20 10:19:32;;;;;;;2.10;1.90;;;;;;;24.67;49.51;99226.70;217959;1254;138795;-69
2023/07/20 10:24:38;;;;;;;2.10;1.90;;;;;;;24.49;48.89;99226.75;219062;1254;139997;-67
2023/07/20 10:29:43;;;;;;;4.60;2.30;;;;;;;24.17;49.05;99228.67;218143;1257;138980;-64
2023/07/20 10:34:55;;;;;;;2.40;2.30;;;;;;;24.03;49.22;99227.48;220018;1254;139066;-64
2023/07/20 10:40:38;;;;;;;2.70;2.20;;;;;;;24.14;49.95;99224.91;218056;1257;139789;-65
2023/07/20 10:45:49;;;;;;;2.70;2.30;;;;;;;24.14;49.90;99229.88;219864;1256;140242;-67
2023/07/20 10:51:20;;;;;;;2.90;2.40;;;;;;;24.02;50.00;99222.48;220904;1253;140246;-64
2023/07/20 10:56:31;;;;;;;4.70;2.60;;;;;;;24.01;50.23;99221.88;220941;1253;139306;-64
2023/07/20 11:01:37;;;;;;;6.10;2.60;;;;;;;24.08;50.19;99229.45;220096;1253;139660;-65
2023/07/20 11:06:46;;;;;;;2.80;2.60;;;;;;;23.93;50.57;99242.59;220681;1254;139213;-64
2023/07/20 11:12:10;;;;;;;2.10;2.00;;;;;;;23.55;50.78;99245.44;218333;1253;138890;-64
2023/07/20 11:17:22;;;;;;;3.10;2.20;;;;;;;23.00;51.26;99248.41;219215;1257;140609;-67
2023/07/20 11:22:27;;;;;;;2.80;2.60;;;;;;;22.40;51.71;99249.17;218367;1254;244697;-65
2023/07/20 11:27:32;;;;;;;2.10;1.90;;;;;;;22.13;52.46;99252.60;219474;1253;139968;-67
2023/07/20 11:32:48;;;;;;;1.50;1.40;;;;;;;22.11;53.00;99255.54;219008;1253;139613;-70
2023/07/20 11:37:55;;;;;;;2.10;2.00;;;;;;;22.19;53.26;99256.42;220427;1254;142271;-75
2023/07/20 11:43:01;;;;;;;3.30;3.10;;;;;;;22.34;53.37;99245.86;218967;1253;139546;-68
2023/07/20 11:48:17;;;;;;;2.90;2.70;;;;;;;22.90;53.92;99232.46;218412;1254;142158;-65
2023/07/20 11:53:25;;;;;;;2.90;2.40;;;;;;;23.66;53.92;99224.55;218007;1254;139375;-69
2023/07/20 11:58:31;;;;;;;1.70;1.60;;;;;;;24.06;53.48;99213.73;218241;1254;140010;-68
2023/07/20 12:03:36;;;;;;;2.60;1.30;;;;;;;24.48;52.22;99203.02;218159;1257;139046;-67
2023/07/20 12:08:44;;;;;;;1.00;1.00;;;;;;;24.64;50.74;99204.55;218860;1253;138980;-66
2023/07/20 12:13:49;;;;;;;0.90;0.90;;;;;;;24.69;49.88;99218.14;217984;1254;139666;-66
2023/07/20 12:19:09;;;;;;;2.90;1.00;;;;;;;24.50;49.14;99226.61;219089;1254;139506;-67
2023/07/20 12:24:19;;;;;;;0.90;0.90;;;;;;;23.91;49.66;99233.54;217736;1254;717480;-66
2023/07/20 12:29:24;;;;;;;1.30;1.20;;;;;;;23.61;50.38;99233.23;218501;1256;138892;-66
2023/07/20 12:34:28;;;;;;;1.40;1.40;;;;;;;23.40;50.82;99257.25;220218;1253;139636;-66
2023/07/20 12:39:33;;;;;;;2.30;1.00;;;;;;;23.07;50.11;99331.10;220096;1253;139043;-68
2023/07/20 12:44:41;;;;;;;2.20;1.00;;;;;;;22.02;48.50;99350.96;219670;1253;139087;-67
2023/07/20 12:49:47;;;;;;;1.10;1.00;;;;;;;20.91;49.30;99335.58;220488;1253;139692;-68
2023/07/20 12:54:52;;;;;;;2.50;0.80;;;;;;;20.04;50.53;99333.50;220773;1253;139346;-65
2023/07/20 12:59:58;;;;;;;5.10;1.50;;;;;;;19.44;51.61;99347.05;220216;1253;139507;-64
2023/07/20 13:05:04;;;;;;;1.60;1.10;;;;;;;19.02;52.97;99333.09;219512;1253;142839;-64
2023/07/20 13:10:12;;;;;;;1.60;1.00;;;;;;;18.81;54.09;99299.41;218510;1254;138694;-68
2023/07/20 13:15:19;;;;;;;2.40;0.70;;;;;;;18.96;55.32;99279.19;218296;1254;138990;-68
2023/07/20 13:20:32;;;;;;;1.40;1.30;;;;;;;19.55;56.41;99271.72;220034;1254;141059;-69
2023/07/20 13:25:38;;;;;;;4.70;1.50;;;;;;;20.18;56.81;99270.44;218209;1254;138971;-67
2023/07/20 13:30:44;;;;;;;2.10;1.30;;;;;;;20.53;57.15;99274.97;219204;1253;139952;-67
2023/07/20 13:35:50;;;;;;;5.70;1.20;;;;;;;20.65;57.73;99278.19;218504;1253;140257;-64
2023/07/20 13:40:57;;;;;;;1.10;1.10;;;;;;;20.98;57.47;99282.85;217912;1254;140977;-70
2023/07/20 13:46:03;;;;;;;1.10;1.00;;;;;;;21.42;57.21;99284.06;218960;1254;138948;-67
2023/07/20 13:51:06;;;;;;;0.90;0.70;;;;;;;21.72;55.63;99286.73;218587;1254;139288;-67
2023/07/20 13:56:11;;;;;;;1.30;0.70;;;;;;;21.83;54.53;99288.88;218546;1257;139277;-67
2023/07/20 14:01:18;;;;;;;0.50;0.50;;;;;;;21.99;54.49;99292.90;218018;1257;140630;-67
2023/07/20 14:06:31;;;;;;;0.90;0.80;;;;;;;22.13;53.61;99299.04;218027;1254;140909;-69
2023/07/20 14:11:37;;;;;;;0.60;0.60;;;;;;;22.21;52.86;99296.67;218323;1257;139452;-67
2023/07/20 14:16:45;;;;;;;0.60;0.60;;;;;;;22.22;52.13;99294.88;218995;1253;139939;-67
2023/07/20 14:21:52;;;;;;;1.00;0.90;;;;;;;22.28;51.63;99291.96;218388;1254;138895;-67
2023/07/20 14:26:56;;;;;;;2.90;0.80;;;;;;;22.40;51.22;99292.84;218179;1253;140277;-70
2023/07/20 14:32:01;;;;;;;1.00;0.60;;;;;;;22.43;51.02;99285.84;220468;1253;139721;-73
2023/07/20 14:37:07;;;;;;;0.60;0.60;;;;;;;22.52;50.51;99281.64;219445;1254;140868;-73
2023/07/20 14:42:12;;;;;;;0.60;0.60;;;;;;;22.63;49.75;99280.42;219658;1253;140183;-65
2023/07/20 14:47:19;;;;;;;1.30;0.80;;;;;;;22.77;49.51;99277.17;220959;1253;139417;-69
2023/07/20 14:52:29;;;;;;;1.20;0.60;;;;;;;22.59;49.15;99274.45;221007;1253;139680;-68
2023/07/20 14:57:35;;;;;;;0.90;0.90;;;;;;;22.39;49.55;99269.42;221041;1253;140019;-67
2023/07/20 15:02:40;;;;;;;0.90;0.90;;;;;;;22.35;50.09;99274.09;218270;1257;138994;-70
2023/07/20 15:07:48;;;;;;;1.00;1.00;;;;;;;22.60;50.11;99275.98;219662;1254;139684;-70
2023/07/20 15:12:54;;;;;;;1.50;0.70;;;;;;;22.77;50.27;99272.29;218401;1254;139481;-71
2023/07/20 15:17:58;;;;;;;1.00;1.00;;;;;;;22.72;50.59;99268.80;218242;1254;138986;-70
2023/07/20 15:23:03;;;;;;;0.90;0.90;;;;;;;22.76;50.79;99273.23;219507;1253;139378;-70
2023/07/20 15:28:07;;;;;;;1.00;1.00;;;;;;;22.71;50.90;99270.14;218212;1257;139441;-70
2023/07/20 15:33:12;;;;;;;0.70;0.70;;;;;;;22.76;50.95;99266.23;218369;1257;139196;-70
2023/07/20 15:38:17;;;;;;;1.10;1.00;;;;;;;22.79;50.85;99255.98;218343;1257;138960;-67
2023/07/20 15:43:22;;;;;;;1.20;1.10;;;;;;;22.77;50.73;99257.11;218100;1257;139274;-69
2023/07/20 15:48:31;;;;;;;1.20;1.10;;;;;;;22.78;50.41;99255.18;217909;1254;139387;-69
2023/07/20 15:53:37;;;;;;;1.70;1.60;;;;;;;22.71;50.18;99259.50;218582;1254;139478;-70
2023/07/20 15:58:41;;;;;;;1.20;1.20;;;;;;;22.62;49.97;99257.98;218223;1254;138936;-70
2023/07/20 16:03:47;;;;;;;1.00;1.00;;;;;;;22.37;49.73;99272.92;218029;1254;139846;-67
2023/07/20 16:08:51;;;;;;;1.70;1.20;;;;;;;22.08;50.17;99287.73;218049;1254;139081;-69
2023/07/20 16:13:56;;;;;;;1.40;1.30;;;;;;;21.93;49.55;99295.90;218915;1254;140047;-72
2023/07/20 16:19:00;;;;;;;1.80;1.50;;;;;;;21.45;49.06;99301.45;219723;1254;138754;-68
2023/07/20 16:24:05;;;;;;;1.10;1.00;;;;;;;21.00;49.30;99311.45;218747;1254;139269;-69
2023/07/20 16:29:10;;;;;;;0.90;0.90;;;;;;;20.73;49.86;99328.95;219354;1257;140751;-71
2023/07/20 16:34:18;;;;;;;1.10;1.00;;;;;;;20.58;50.47;99325.31;219267;1255;139859;-71
2023/07/20 16:39:22;;;;;;;1.20;1.10;;;;;;;20.56;50.82;99327.26;221066;1253;139062;-72
2023/07/20 16:44:32;;;;;;;1.60;1.50;;;;;;;20.60;51.43;99327.05;220846;1253;139712;-69
2023/07/20 16:49:37;;;;;;;1.90;1.20;;;;;;;20.59;51.62;99329.09;220068;1254;138786;-69
2023/07/20 16:54:42;;;;;;;2.30;1.30;;;;;;;20.58;51.99;99336.25;219429;1255;139155;-70
2023/07/20 16:59:47;;;;;;;1.60;1.00;;;;;;;20.50;52.07;99346.59;220321;1253;140222;-67
2023/07/20 17:04:54;;;;;;;2.00;0.90;;;;;;;20.37;52.40;99348.04;219193;1254;141674;-64
2023/07/20 17:09:59;;;;;;;3.60;1.30;;;;;;;20.31;52.50;99350.93;219060;1256;139070;-68
2023/07/20 17:15:04;;;;;;;1.00;1.00;;;;;;;20.39;52.71;99346.20;218919;1254;139124;-64
2023/07/20 17:20:12;;;;;;;1.30;1.20;;;;;;;20.42;52.46;99345.03;219125;1253;139377;-70
2023/07/20 17:25:20;;;;;;;0.70;0.70;;;;;;;20.31;52.49;99344.00;219169;1254;139043;-72
2023/07/20 17:30:28;;;;;;;2.10;1.30;;;;;;;20.18;52.76;99354.38;218141;1257;139001;-73
2023/07/20 17:35:32;;;;;;;2.60;1.30;;;;;;;20.10;53.10;99362.92;219392;1254;138813;-69
2023/07/20 17:40:38;;;;;;;1.10;1.10;;;;;;;19.96;53.24;99364.55;218415;1256;139556;-75
2023/07/20 17:45:47;;;;;;;1.10;1.00;;;;;;;19.72;53.19;99371.34;218408;1258;138825;-72
2023/07/20 17:50:54;;;;;;;0.80;0.80;;;;;;;19.56;53.71;99374.50;218885;1254;140196;-79
2023/07/20 17:56:05;;;;;;;1.10;1.10;;;;;;;19.40;54.38;99372.30;218253;1254;139031;-82
2023/07/20 18:01:11;;;;;;;1.40;1.30;;;;;;;19.21;55.08;99370.95;218529;1254;140310;-71
2023/07/20 18:06:19;;;;;;;1.70;1.40;;;;;;;18.98;55.31;99368.77;218999;1252;206916;-69
2023/07/20 18:11:27;;;;;;;0.90;0.90;;;;;;;18.79;56.04;99374.13;218544;1254;139210;-69
2023/07/20 18:16:32;;;;;;;1.60;1.40;;;;;;;18.60;56.35;99374.57;218659;1253;139806;-69
2023/07/20 18:21:39;;;;;;;1.10;1.10;;;;;;;18.41;56.97;99370.80;219218;1254;138854;-69
2023/07/20 18:26:44;;;;;;;1.10;1.10;;;;;;;18.18;57.38;99374.84;219423;1257;138884;-68
2023/07/20 18:31:50;;;;;;;1.10;1.10;;;;;;;17.92;57.63;99371.23;220072;1254;139745;-73
2023/07/20 18:36:55;;;;;;;27.40;3.10;;;;;;;17.63;58.13;99374.36;218160;1254;140029;-68
2023/07/20 18:42:04;;;;;;;1.30;1.30;;;;;;;17.39;58.88;99376.38;219433;1254;139170;-67
2023/07/20 18:47:09;;;;;;;1.00;1.00;;;;;;;17.10;59.42;99388.30;220862;1254;140944;-73
2023/07/20 18:52:15;;;;;;;2.70;1.00;;;;;;;16.85;60.03;99391.46;220840;1254;141079;-67
2023/07/20 18:57:35;;;;;;;2.40;1.40;;;;;;;16.72;60.59;99396.33;220460;1253;139869;-68
2023/07/20 19:02:42;;;;;;;1.40;1.30;;;;;;;16.55;61.08;99402.14;219884;1254;141193;-69
2023/07/20 19:07:50;;;;;;;1.50;1.30;;;;;;;16.47;61.68;99399.70;219049;1254;140172;-68
2023/07/20 19:12:56;;;;;;;1.30;1.10;;;;;;;16.34;61.89;99398.17;218055;1254;139952;-64
2023/07/20 19:18:02;;;;;;;1.90;1.80;;;;;;;16.14;62.21;99404.23;218933;1254;141900;-65
2023/07/20 19:23:11;;;;;;;1.90;1.50;;;;;;;15.98;62.62;99413.63;218277;1254;139742;-65
2023/07/20 19:28:27;;;;;;;5.80;2.10;;;;;;;15.84;62.98;99418.83;219506;1257;139660;-66
2023/07/20 19:33:34;;;;;;;3.20;1.40;;;;;;;15.61;63.17;99422.73;218280;1254;140642;-66
2023/07/20 19:38:39;;;;;;;1.50;1.10;;;;;;;15.38;63.50;99423.92;218040;1254;140670;-66
2023/07/20 19:43:46;;;;;;;1.70;1.60;;;;;;;15.15;64.03;99440.58;218134;1254;211993;-69
2023/07/20 19:48:51;;;;;;;1.90;1.60;;;;;;;14.94;64.64;99441.30;218079;1254;141056;-66
2023/07/20 19:53:57;;;;;;;5.10;1.60;;;;;;;14.70;64.96;99437.73;218571;1255;139498;-67
2023/07/20 19:59:05;;;;;;;3.40;1.80;;;;;;;14.47;65.92;99438.94;218493;1259;139953;-66
2023/07/20 20:04:10;;;;;;;3.30;1.50;;;;;;;14.31;66.45;99441.38;219324;1254;139982;-71
2023/07/20 20:09:19;;;;;;;1.90;1.80;;;;;;;14.25;66.91;99447.33;218737;1254;140200;-65
2023/07/20 20:14:25;;;;;;;4.30;2.00;;;;;;;14.22;67.39;99442.70;218141;1258;140834;-67
2023/07/20 20:19:30;;;;;;;9.60;2.20;;;;;;;14.27;67.83;99448.39;219295;1253;141551;-66
2023/07/20 20:24:39;;;;;;;4.20;2.10;;;;;;;14.38;68.37;99452.80;219777;1253;140700;-66
2023/07/20 20:29:45;;;;;;;2.10;1.90;;;;;;;14.54;68.82;99455.95;218114;1253;140104;-68
2023/07/20 20:34:52;;;;;;;1.70;1.60;;;;;;;14.69;69.08;99461.12;219768;1253;139921;-66
2023/07/20 20:39:57;;;;;;;2.50;2.00;;;;;;;14.79;69.39;99455.96;218195;1257;139806;-68
2023/07/20 20:45:01;;;;;;;2.00;1.90;;;;;;;14.90;69.41;99454.31;220909;1254;144343;-67
2023/07/20 20:50:10;;;;;;;1.80;1.70;;;;;;;15.01;69.49;99452.09;220941;1254;140516;-67
2023/07/20 20:55:15;;;;;;;2.00;1.80;;;;;;;15.10;69.58;99454.70;220073;1254;140336;-68
2023/07/20 21:00:21;;;;;;;2.70;2.50;;;;;;;15.13;69.77;99460.13;219155;1254;140947;-69
2023/07/20 21:05:25;;;;;;;2.50;2.30;;;;;;;15.16;69.81;99462.00;220643;1254;140385;-71
2023/07/20 21:10:31;;;;;;;3.20;3.00;;;;;;;15.21;70.06;99461.77;218778;1254;141014;-68
2023/07/20 21:15:40;;;;;;;2.70;2.30;;;;;;;15.25;69.90;99458.98;218919;1257;140459;-67
2023/07/20 21:20:44;;;;;;;4.40;2.40;;;;;;;15.20;70.03;99453.98;219407;1257;139537;-67
2023/07/20 21:25:49;;;;;;;3.50;2.40;;;;;;;15.19;70.25;99461.67;217802;1256;139495;-66
2023/07/20 21:31:04;;;;;;;3.40;2.40;;;;;;;15.18;70.31;99458.50;219279;1256;140132;-67
2023/07/20 21:36:09;;;;;;;11.10;3.20;;;;;;;15.20;70.51;99462.42;218757;1256;141760;-65
2023/07/20 21:41:13;;;;;;;6.20;3.20;;;;;;;15.24;70.81;99469.95;218639;1255;140083;-65
2023/07/20 21:46:23;;;;;;;3.10;2.90;;;;;;;15.27;71.17;99467.41;218287;1254;139817;-65
2023/07/20 21:51:28;;;;;;;3.80;2.50;;;;;;;15.26;71.26;99471.65;218044;1259;140512;-65
2023/07/20 21:56:34;;;;;;;4.00;2.90;;;;;;;15.19;71.01;99476.28;218780;1254;139956;-65
2023/07/20 22:01:39;;;;;;;5.70;2.90;;;;;;;15.13;71.22;99478.16;217713;1259;140156;-66
2023/07/20 22:07:13;;;;;;;3.50;3.20;;;;;;;15.11;71.30;99480.90;218682;1259;142239;-66
2023/07/20 22:12:21;;;;;;;3.00;2.50;;;;;;;15.07;71.35;99489.71;218951;1255;139862;-65
2023/07/20 22:17:26;;;;;;;3.10;2.10;;;;;;;14.97;71.48;99493.64;219286;1254;139897;-65
2023/07/20 22:22:30;;;;;;;8.00;4.30;;;;;;;14.89;71.56;99492.63;218766;1258;141900;-64
2023/07/20 22:27:36;;;;;;;3.20;3.00;;;;;;;14.84;71.59;99499.92;218642;1254;139824;-66
2023/07/20 22:32:45;;;;;;;2.60;2.40;;;;;;;14.69;71.66;99495.95;220321;1254;140135;-66
2023/07/20 22:37:51;;;;;;;4.00;3.60;;;;;;;14.57;72.03;99493.95;218844;1258;141659;-65
2023/07/20 22:42:56;;;;;;;3.90;3.20;;;;;;;14.53;72.31;99491.69;219919;1253;140184;-66
2023/07/20 22:48:02;;;;;;;3.10;2.80;;;;;;;14.46;72.09;99494.02;220968;1254;140497;-68
2023/07/20 22:53:06;;;;;;;3.50;2.90;;;;;;;14.30;71.82;99492.75;221022;1254;140197;-66
2023/07/20 22:58:11;;;;;;;2.90;2.50;;;;;;;14.14;71.82;99497.14;221088;1254;139488;-69
2023/07/20 23:03:15;;;;;;;4.00;3.60;;;;;;;14.03;72.20;99500.13;219168;1254;139998;-67
2023/07/20 23:08:20;;;;;;;3.30;2.70;;;;;;;14.02;72.38;99500.28;220194;1253;141479;-69
2023/07/20 23:13:26;;;;;;;5.10;3.10;;;;;;;13.93;72.50;99500.35;218459;1253;140027;-68
2023/07/20 23:18:33;;;;;;;3.90;3.60;;;;;;;13.89;72.79;99499.69;219207;1256;139647;-69
2023/07/20 23:23:38;;;;;;;4.90;3.90;;;;;;;13.92;72.99;99494.67;219968;1254;139893;-69
2023/07/20 23:28:45;;;;;;;3.80;3.50;;;;;;;13.95;73.34;99489.70;218968;1254;140122;-68